24 Datensätze sind 1 Tag. Aufzeichnung ab 07. Oktober 2014.
Werte (Summe von Anzahl und Position darf nicht größer sein als mögliche Datensätze).
Anzahl:
Position: Summe:
\ 28926 Datensätze möglich.
  20 letzte Aufzeichnungen
gezeigte Daten 20 ab Position 1    Summe der Auswahl = 21
23.05.2018 / 02:29 Uhr bis 23.05.2018 / 21:29 Uhr
Regenmenge 0 Liter

Datum/Zeit Temp. Taupunkt Luftfeuchte Wind speed Wind böhe Wind Temp. Regen Summe Luftdruck
23.05.2018 | 22:29 Uhr 19.7C 10.7C 56% 4.1 kmh 0.2kmh 18.6C 347.9mm 1001.8486mBar/hPa
23.05.2018 | 21:29 Uhr 20.2C 10.6C 54% 0.0 kmh 0.1kmh 19.3C 347.9mm 1001.2861mBar/hPa
23.05.2018 | 20:29 Uhr 20.6C 12.0C 58% 0.0 kmh 0.2kmh 19.5C 347.9mm 1001.5361mBar/hPa
23.05.2018 | 19:29 Uhr 21.0C 13.2C 61% 0.0 kmh 0.0kmh 19.4C 347.9mm 1001.0361mBar/hPa
23.05.2018 | 18:29 Uhr 22.0C 13.4C 58% 0.0 kmh 0.0kmh 21.1C 347.9mm 1000.7861mBar/hPa
23.05.2018 | 17:29 Uhr 22.7C 12.3C 52% 9.1 kmh 1.0kmh 22.3C 347.9mm 1000.1611mBar/hPa
23.05.2018 | 16:29 Uhr 23.3C 11.7C 48% 1.2 kmh 2.4kmh 23.1C 347.9mm 1000.0986mBar/hPa
23.05.2018 | 15:29 Uhr 23.9C 11.9C 47% 8.5 kmh 1.7kmh 24.5C 347.9mm 999.5986mBar/hPa
23.05.2018 | 14:29 Uhr 23.3C 12.9C 52% 7.3 kmh 1.4kmh 24.6C 347.9mm 1000.2236mBar/hPa
23.05.2018 | 13:29 Uhr 22.6C 12.8C 54% 4.1 kmh 2.0kmh 23.7C 347.9mm 1000.5361mBar/hPa
23.05.2018 | 12:29 Uhr 22.0C 12.5C 55% 6.1 kmh 0.3kmh 21.9C 347.9mm 1000.7861mBar/hPa
23.05.2018 | 11:29 Uhr 23.1C 12.1C 50% 0.0 kmh 0.4kmh 23.7C 347.9mm 1000.5986mBar/hPa
23.05.2018 | 10:29 Uhr 23.5C 12.5C 50% 0.0 kmh 1.8kmh 26.1C 347.9mm 1000.3486mBar/hPa
23.05.2018 | 09:29 Uhr 22.1C 12.4C 54% 5.2 kmh 1.7kmh 25.4C 347.9mm 1000.4736mBar/hPa
23.05.2018 | 08:29 Uhr 20.9C 12.3C 58% 0.0 kmh 1.3kmh 22.7C 347.9mm 999.8486mBar/hPa
23.05.2018 | 07:29 Uhr 19.6C 11.6C 60% 0.0 kmh 1.0kmh 20.5C 347.9mm 999.4736mBar/hPa
23.05.2018 | 06:29 Uhr 17.7C 11.3C 66% 0.0 kmh 0.5kmh 19.2C 347.9mm 999.2236mBar/hPa
23.05.2018 | 05:29 Uhr 15.5C 10.5C 72% 0.0 kmh 0.0kmh 16.2C 347.9mm 998.7861mBar/hPa
23.05.2018 | 04:29 Uhr 13.5C 9.7C 78% 0.0 kmh 0.0kmh 13.2C 347.9mm 998.1611mBar/hPa
23.05.2018 | 03:29 Uhr 12.2C 8.5C 78% 0.0 kmh 0.0kmh 11.0C 347.9mm 997.8486mBar/hPa